Chilly, Idaho
Current Conditions -  °F | °C
As of 1:47 PM on Thursday 18 Dec 2014 (Local Time) from KSUN Reporting Station
Broken Clouds Broken Clouds  
Wind Chill: 34°   Ceiling: 4000
Heat Index: 34°   Visibility: 10mi
Dew Point: 27°   Wind: 0mph
Humidity: 75%   Direction: NA
Pressure: 30.1"   Gusts: NA
Location:  43.8935°N, 113.876°W
Report Text: KSUN 182047Z 00000KT 10SM SCT020 BKN040 BKN060 01/M03 A3010
Loading
Personal Weather Stations






























Interactive Weather Map New forecast layout! Learn more

10-Day Weather Forecast

Advertisements
Track Severe Weather on mobile